Time;durP1;ratioP1;P1;durP2;ratioP2;P2;SDS_P1;SDS_P2;PMS_P1;PMS_P2;Temp;Humidity;BMP_temperature;BMP_pressure;BME280_temperature;BME280_humidity;BME280_pressure;Samples;Min_cycle;Max_cycle;Signal;HPM_P1;HPM_P2
2023/10/26 00:01:35;;;;;;;13.97;10.70;;;9.90;99.90;;;;;;5103232;27;21067;-51
2023/10/26 00:04:04;;;;;;;15.97;11.20;;;9.90;99.90;;;;;;5068638;28;20548;-48
2023/10/26 00:06:30;;;;;;;15.53;12.03;;;9.90;99.90;;;;;;5102610;28;20229;-49
2023/10/26 00:08:57;;;;;;;17.40;10.63;;;9.90;99.90;;;;;;5092084;28;20201;-45
2023/10/26 00:11:24;;;;;;;17.50;11.30;;;9.80;99.90;;;;;;5102346;28;20204;-48
2023/10/26 00:13:51;;;;;;;15.70;11.33;;;9.80;99.90;;;;;;5101302;28;20231;-44
2023/10/26 00:16:17;;;;;;;14.20;10.63;;;9.80;99.90;;;;;;5100737;28;20193;-46
2023/10/26 00:18:44;;;;;;;13.63;11.87;;;9.80;99.90;;;;;;5069625;28;20733;-44
2023/10/26 00:21:13;;;;;;;14.47;11.23;;;9.80;99.90;;;;;;5099525;28;20255;-45
2023/10/26 00:23:39;;;;;;;18.63;10.53;;;9.80;99.90;;;;;;5101181;28;20282;-44
2023/10/26 00:26:06;;;;;;;14.33;10.30;;;9.70;99.90;;;;;;5088858;28;20351;-52
2023/10/26 00:28:33;;;;;;;16.30;11.07;;;9.70;99.90;;;;;;5102024;28;20197;-46
2023/10/26 00:31:00;;;;;;;16.37;11.83;;;9.70;99.90;;;;;;5097684;28;20223;-45
2023/10/26 00:33:27;;;;;;;16.20;11.47;;;9.70;99.90;;;;;;5070055;28;20247;-52
2023/10/26 00:35:54;;;;;;;14.07;11.00;;;9.70;99.90;;;;;;5098416;28;20197;-44
2023/10/26 00:38:23;;;;;;;13.97;10.77;;;9.70;99.90;;;;;;5100626;28;20304;-48
2023/10/26 00:40:49;;;;;;;16.67;11.23;;;9.70;99.90;;;;;;5095797;28;20197;-45
2023/10/26 00:43:21;;;;;;;16.33;10.87;;;9.70;99.90;;;;;;5096110;28;20213;-46
2023/10/26 00:45:50;;;;;;;16.73;10.97;;;9.70;99.90;;;;;;5100089;28;20280;-43
2023/10/26 00:48:17;;;;;;;16.37;11.37;;;9.70;99.90;;;;;;5097081;28;20888;-44
2023/10/26 00:50:44;;;;;;;14.90;11.23;;;9.70;99.90;;;;;;5068910;28;20525;-44
2023/10/26 00:53:12;;;;;;;16.00;10.00;;;9.70;99.90;;;;;;5098113;28;20970;-44
2023/10/26 00:55:41;;;;;;;17.53;11.57;;;9.70;99.90;;;;;;5102410;28;20197;-47
2023/10/26 00:58:10;;;;;;;17.17;11.33;;;9.70;99.90;;;;;;5089241;28;20201;-48
2023/10/26 01:00:38;;;;;;;12.90;11.40;;;9.60;99.90;;;;;;5102062;28;20185;-46
2023/10/26 01:03:06;;;;;;;17.43;11.67;;;9.60;99.90;;;;;;5096667;28;20200;-46
2023/10/26 01:05:32;;;;;;;15.70;10.10;;;9.60;99.90;;;;;;5069858;28;20213;-46
2023/10/26 01:07:59;;;;;;;17.00;11.97;;;9.60;99.90;;;;;;5097510;28;20196;-46
2023/10/26 01:10:27;;;;;;;16.23;10.90;;;9.60;99.90;;;;;;5100846;28;20197;-47
2023/10/26 01:12:55;;;;;;;14.30;10.63;;;9.60;99.90;;;;;;5090729;28;20221;-45
2023/10/26 01:15:24;;;;;;;15.73;11.53;;;9.60;99.90;;;;;;5102073;28;20201;-51
2023/10/26 01:17:51;;;;;;;12.03;10.40;;;9.60;99.90;;;;;;5099833;28;20748;-45
2023/10/26 01:20:18;;;;;;;13.77;10.30;;;9.50;99.90;;;;;;5106763;28;20189;-46
2023/10/26 01:22:46;;;;;;;19.97;11.70;;;9.50;99.90;;;;;;5071030;28;20227;-43
2023/10/26 01:25:13;;;;;;;17.00;12.10;;;9.50;99.90;;;;;;5099611;28;20209;-46
2023/10/26 01:27:40;;;;;;;15.40;11.17;;;9.50;99.90;;;;;;5094839;28;20732;-48
2023/10/26 01:30:08;;;;;;;17.77;11.77;;;9.50;99.90;;;;;;5102453;28;20185;-47
2023/10/26 01:32:35;;;;;;;17.10;11.30;;;9.50;99.90;;;;;;5106059;28;20213;-47
2023/10/26 01:35:02;;;;;;;13.77;10.87;;;9.50;99.90;;;;;;5102207;27;20260;-46
2023/10/26 01:37:29;;;;;;;13.80;11.13;;;9.50;99.90;;;;;;5076138;28;20212;-48
2023/10/26 01:39:57;;;;;;;14.43;10.70;;;9.50;99.90;;;;;;5103451;28;20193;-43
2023/10/26 01:42:24;;;;;;;15.83;10.47;;;9.50;99.90;;;;;;5095262;28;20214;-47
2023/10/26 01:44:50;;;;;;;14.47;11.00;;;9.60;99.90;;;;;;5104008;28;20651;-46
2023/10/26 01:47:17;;;;;;;15.17;11.13;;;9.50;99.90;;;;;;5103879;28;20189;-48
2023/10/26 01:49:45;;;;;;;17.53;11.63;;;9.50;99.90;;;;;;5104159;28;20606;-45
2023/10/26 01:52:12;;;;;;;17.70;10.77;;;9.50;99.90;;;;;;5071089;27;20228;-47
2023/10/26 01:54:38;;;;;;;15.60;11.33;;;9.50;99.90;;;;;;5105774;28;20221;-47
2023/10/26 01:57:07;;;;;;;18.93;10.93;;;9.50;99.90;;;;;;5100372;28;20186;-47
2023/10/26 01:59:33;;;;;;;12.70;10.50;;;9.50;99.90;;;;;;5095594;28;20208;-50
2023/10/26 02:02:00;;;;;;;17.10;11.87;;;9.50;99.90;;;;;;5097158;28;20838;-46
2023/10/26 02:04:27;;;;;;;17.50;11.13;;;9.60;99.90;;;;;;5100591;28;20672;-46
2023/10/26 02:06:54;;;;;;;15.50;10.90;;;9.60;99.90;;;;;;5093029;27;20194;-50
2023/10/26 02:09:21;;;;;;;15.10;10.83;;;9.60;99.90;;;;;;5067603;27;20581;-50
2023/10/26 02:11:48;;;;;;;15.73;11.73;;;9.60;99.90;;;;;;5099723;28;20275;-48
2023/10/26 02:14:16;;;;;;;13.60;11.10;;;9.60;99.90;;;;;;5093928;28;20225;-50
2023/10/26 02:16:43;;;;;;;21.13;11.63;;;9.60;99.90;;;;;;5091837;28;20242;-42
2023/10/26 02:19:10;;;;;;;16.93;11.83;;;9.60;99.90;;;;;;5104069;28;20561;-50
2023/10/26 02:21:36;;;;;;;15.17;11.60;;;9.60;99.90;;;;;;5104108;27;20185;-44
2023/10/26 02:24:04;;;;;;;13.90;10.73;;;9.60;99.90;;;;;;5074574;27;20797;-50
2023/10/26 02:26:30;;;;;;;17.93;12.63;;;9.60;99.90;;;;;;5104827;27;20197;-47
2023/10/26 02:28:57;;;;;;;17.93;12.17;;;9.60;99.90;;;;;;5092067;28;20204;-48
2023/10/26 02:31:25;;;;;;;16.63;11.77;;;9.60;99.90;;;;;;5106180;27;20242;-51
2023/10/26 02:33:52;;;;;;;17.67;12.17;;;9.60;99.90;;;;;;5104811;27;20282;-49
2023/10/26 02:36:19;;;;;;;16.67;11.63;;;9.60;99.90;;;;;;5109513;27;20215;-45
2023/10/26 02:38:46;;;;;;;19.93;12.83;;;9.60;99.90;;;;;;5068348;28;20197;-48
2023/10/26 02:41:13;;;;;;;15.77;12.07;;;9.60;99.90;;;;;;5099577;28;20287;-45
2023/10/26 02:43:40;;;;;;;19.20;12.90;;;9.60;99.90;;;;;;5099002;28;20216;-49
2023/10/26 02:46:08;;;;;;;18.37;13.23;;;9.60;99.90;;;;;;5100685;27;20603;-46
2023/10/26 02:48:37;;;;;;;19.00;12.40;;;9.60;99.90;;;;;;5107008;27;20182;-47
2023/10/26 02:51:04;;;;;;;16.20;11.97;;;9.60;99.90;;;;;;5110169;27;20243;-48
2023/10/26 02:53:31;;;;;;;17.43;12.67;;;9.60;99.90;;;;;;5113057;27;21050;-50
2023/10/26 02:55:58;;;;;;;18.97;12.73;;;9.60;99.90;;;;;;5082855;27;20579;-50
2023/10/26 02:58:24;;;;;;;15.80;11.70;;;9.70;99.90;;;;;;5104637;27;20189;-45
2023/10/26 03:00:53;;;;;;;17.60;11.63;;;9.60;99.90;;;;;;5105850;27;20250;-47
2023/10/26 03:03:21;;;;;;;15.93;12.30;;;9.60;99.90;;;;;;5099770;28;20217;-43
2023/10/26 03:05:49;;;;;;;17.43;12.80;;;9.60;99.90;;;;;;5090425;27;20664;-47
2023/10/26 03:08:16;;;;;;;16.13;12.63;;;9.60;99.90;;;;;;5100571;28;20193;-45
2023/10/26 03:10:43;;;;;;;16.33;12.40;;;9.60;99.90;;;;;;5075082;27;20192;-49
2023/10/26 03:13:11;;;;;;;19.17;13.13;;;9.60;99.90;;;;;;5104683;27;20633;-44
2023/10/26 03:15:38;;;;;;;19.27;13.37;;;9.70;99.90;;;;;;5092228;27;20209;-46
2023/10/26 03:18:06;;;;;;;22.07;13.97;;;9.70;99.90;;;;;;5106403;27;20196;-45
2023/10/26 03:20:34;;;;;;;19.37;13.30;;;9.70;99.90;;;;;;5100137;27;20207;-46
2023/10/26 03:23:02;;;;;;;20.07;14.00;;;9.70;99.90;;;;;;5099925;27;20225;-46
2023/10/26 03:25:29;;;;;;;22.60;14.43;;;9.70;99.90;;;;;;5071659;27;20213;-48
2023/10/26 03:27:57;;;;;;;20.50;14.17;;;9.70;99.90;;;;;;5104071;27;20296;-52
2023/10/26 03:30:24;;;;;;;21.10;14.87;;;9.70;99.90;;;;;;5091802;27;20197;-50
2023/10/26 03:32:50;;;;;;;19.50;14.00;;;9.70;99.90;;;;;;5090982;27;20612;-47
2023/10/26 03:35:17;;;;;;;23.23;14.97;;;9.70;99.90;;;;;;5103126;27;20220;-47
2023/10/26 03:37:45;;;;;;;21.00;15.37;;;9.70;99.90;;;;;;5116314;27;20533;-48
2023/10/26 03:40:14;;;;;;;19.97;14.70;;;9.70;99.90;;;;;;5113513;27;20203;-45
2023/10/26 03:42:42;;;;;;;22.57;14.97;;;9.70;99.90;;;;;;5073948;27;20216;-48
2023/10/26 03:45:10;;;;;;;22.53;15.17;;;9.70;99.90;;;;;;5106048;27;20189;-43
2023/10/26 03:47:39;;;;;;;21.17;14.57;;;9.70;99.90;;;;;;5092055;28;21084;-46
2023/10/26 03:50:08;;;;;;;19.80;14.77;;;9.70;99.90;;;;;;5107894;27;20660;-44
2023/10/26 03:52:35;;;;;;;20.97;14.27;;;9.70;99.90;;;;;;5098750;28;20258;-49
2023/10/26 03:55:04;;;;;;;22.13;14.43;;;9.70;99.90;;;;;;5102998;28;20205;-47
2023/10/26 03:57:32;;;;;;;21.43;14.93;;;9.70;99.90;;;;;;5061346;27;20928;-47
2023/10/26 03:59:59;;;;;;;22.70;14.30;;;9.70;99.90;;;;;;5102359;28;20208;-46
2023/10/26 04:02:26;;;;;;;21.73;14.43;;;9.70;99.90;;;;;;5090068;27;20285;-47
2023/10/26 04:04:53;;;;;;;20.93;15.47;;;9.70;99.90;;;;;;5111508;27;20189;-50
2023/10/26 04:07:20;;;;;;;24.20;15.93;;;9.70;99.90;;;;;;5099148;28;20200;-43
2023/10/26 04:09:47;;;;;;;21.27;14.03;;;9.70;99.90;;;;;;5103664;28;20272;-47
2023/10/26 04:12:14;;;;;;;21.37;14.93;;;9.60;99.90;;;;;;5082320;28;20627;-42
2023/10/26 04:14:42;;;;;;;23.13;15.33;;;9.70;99.90;;;;;;5099569;27;20244;-51
2023/10/26 04:17:11;;;;;;;19.50;14.07;;;9.70;99.90;;;;;;5101332;28;20193;-46
2023/10/26 04:19:38;;;;;;;24.03;15.40;;;9.70;99.90;;;;;;5092864;28;20288;-50
2023/10/26 04:22:05;;;;;;;21.97;14.57;;;9.70;99.90;;;;;;5102311;28;20213;-44
2023/10/26 04:24:32;;;;;;;27.00;15.87;;;9.70;99.90;;;;;;5111495;27;20427;-46
2023/10/26 04:27:00;;;;;;;23.10;14.97;;;9.70;99.90;;;;;;5103256;28;20792;-46
2023/10/26 04:29:27;;;;;;;25.23;14.13;;;9.70;99.90;;;;;;5075386;27;20235;-46
2023/10/26 04:31:55;;;;;;;21.60;14.63;;;9.70;99.90;;;;;;5102876;28;20763;-48
2023/10/26 04:34:22;;;;;;;20.30;14.17;;;9.70;99.90;;;;;;5090123;28;20278;-45
2023/10/26 04:36:49;;;;;;;20.20;14.93;;;9.70;99.90;;;;;;5095777;28;20199;-49
2023/10/26 04:39:16;;;;;;;24.27;14.80;;;9.60;99.90;;;;;;5099693;28;20201;-44
2023/10/26 04:41:44;;;;;;;20.57;14.23;;;9.60;99.90;;;;;;5101421;28;20224;-52
2023/10/26 04:44:11;;;;;;;23.63;16.10;;;9.60;99.90;;;;;;5070564;28;20635;-45
2023/10/26 04:46:38;;;;;;;18.83;14.07;;;9.60;99.90;;;;;;5100005;28;20272;-47
2023/10/26 04:49:07;;;;;;;23.83;15.90;;;9.60;99.90;;;;;;5100759;28;20712;-45
2023/10/26 04:51:33;;;;;;;20.33;13.83;;;9.60;99.90;;;;;;5094732;28;20197;-49
2023/10/26 04:54:00;;;;;;;24.27;14.37;;;9.60;99.90;;;;;;5105183;27;20720;-46
2023/10/26 04:56:28;;;;;;;25.93;14.93;;;9.60;99.90;;;;;;5098302;28;21156;-47
2023/10/26 04:58:55;;;;;;;24.10;15.80;;;9.60;99.90;;;;;;5076299;27;20293;-46
2023/10/26 05:01:22;;;;;;;22.10;16.03;;;9.60;99.90;;;;;;5098382;28;20201;-51
2023/10/26 05:03:49;;;;;;;21.67;15.30;;;9.60;99.90;;;;;;5102497;28;20624;-52
2023/10/26 05:06:17;;;;;;;22.20;15.73;;;9.60;99.90;;;;;;5095882;28;20201;-48
2023/10/26 05:08:43;;;;;;;19.20;14.77;;;9.60;99.90;;;;;;5101803;28;20201;-51
2023/10/26 05:11:10;;;;;;;21.93;15.77;;;9.60;99.90;;;;;;5100694;28;20679;-43
2023/10/26 05:13:37;;;;;;;19.97;14.83;;;9.60;99.90;;;;;;5074752;28;20221;-47
2023/10/26 05:16:04;;;;;;;24.80;15.67;;;9.50;99.90;;;;;;5101985;28;20623;-44
2023/10/26 05:18:32;;;;;;;20.53;15.13;;;9.50;99.90;;;;;;5098847;28;20197;-52
2023/10/26 05:20:59;;;;;;;23.57;15.47;;;9.40;99.90;;;;;;5093933;28;20609;-49
2023/10/26 05:23:28;;;;;;;25.93;15.80;;;9.40;99.90;;;;;;5097854;28;20213;-51
2023/10/26 05:25:54;;;;;;;21.13;15.07;;;9.40;99.90;;;;;;5102720;28;20189;-48
2023/10/26 05:28:21;;;;;;;26.23;15.40;;;9.40;99.90;;;;;;5098046;28;20250;-46
2023/10/26 05:30:48;;;;;;;24.10;15.77;;;9.40;99.90;;;;;;5070599;28;20241;-51
2023/10/26 05:33:15;;;;;;;20.60;14.93;;;9.40;99.90;;;;;;5099140;28;20220;-46
2023/10/26 05:35:43;;;;;;;27.63;15.73;;;9.40;99.90;;;;;;5101464;28;20312;-47
2023/10/26 05:38:10;;;;;;;25.47;15.83;;;9.30;99.90;;;;;;5091551;28;20718;-46
2023/10/26 05:40:38;;;;;;;21.67;15.07;;;9.30;99.90;;;;;;5100015;28;20214;-47
2023/10/26 05:43:05;;;;;;;24.63;15.23;;;9.30;99.90;;;;;;5098632;28;20237;-44
2023/10/26 05:45:37;;;;;;;23.47;14.90;;;9.30;99.90;;;;;;5068135;28;20904;-47
2023/10/26 05:48:05;;;;;;;26.37;16.57;;;9.40;99.90;;;;;;5101706;28;20204;-42
2023/10/26 05:50:32;;;;;;;28.60;16.20;;;9.40;99.90;;;;;;5098467;28;20197;-46
2023/10/26 05:52:58;;;;;;;25.20;16.60;;;9.40;99.90;;;;;;5093629;28;20270;-46
2023/10/26 05:55:25;;;;;;;25.60;15.37;;;9.40;99.90;;;;;;5097825;28;20212;-50
2023/10/26 05:57:53;;;;;;;25.40;15.57;;;9.50;99.90;;;;;;5102074;28;20279;-48
2023/10/26 06:00:20;;;;;;;24.70;15.30;;;9.50;99.90;;;;;;5068177;28;20592;-45
2023/10/26 06:02:47;;;;;;;23.83;16.50;;;9.50;99.90;;;;;;5100985;28;20240;-47
2023/10/26 06:05:14;;;;;;;23.73;15.80;;;9.50;99.90;;;;;;5098901;28;20189;-46
2023/10/26 06:07:41;;;;;;;30.93;17.47;;;9.60;99.90;;;;;;5092052;28;21613;-46
2023/10/26 06:10:09;;;;;;;26.57;16.43;;;9.60;99.90;;;;;;5100929;28;20753;-47
2023/10/26 06:12:36;;;;;;;25.83;16.73;;;9.60;99.90;;;;;;5100650;28;20235;-47
2023/10/26 06:15:05;;;;;;;25.97;15.83;;;9.60;99.90;;;;;;5101759;28;20589;-46
2023/10/26 06:17:32;;;;;;;29.60;15.83;;;9.70;99.90;;;;;;5081539;27;20916;-48
2023/10/26 06:19:59;;;;;;;25.13;14.83;;;9.70;99.90;;;;;;5105826;28;20194;-49
2023/10/26 06:22:26;;;;;;;27.60;15.37;;;9.70;99.90;;;;;;5092491;28;20270;-46
2023/10/26 06:24:52;;;;;;;22.17;13.87;;;9.70;99.90;;;;;;5105846;28;20193;-45
2023/10/26 06:27:19;;;;;;;22.93;14.40;;;9.70;99.90;;;;;;5101290;28;20565;-44
2023/10/26 06:29:46;;;;;;;23.50;14.30;;;9.70;99.90;;;;;;5105387;28;20620;-47
2023/10/26 06:32:14;;;;;;;24.40;14.67;;;9.80;99.90;;;;;;5072038;27;20229;-44
2023/10/26 06:34:41;;;;;;;21.87;13.17;;;9.80;99.90;;;;;;5092378;28;20209;-50
2023/10/26 06:37:08;;;;;;;19.73;13.10;;;9.80;99.90;;;;;;5103037;28;20201;-43
2023/10/26 06:39:34;;;;;;;22.60;13.23;;;9.80;99.90;;;;;;5094333;28;20204;-46
2023/10/26 06:42:01;;;;;;;20.53;13.53;;;9.90;99.90;;;;;;5095364;28;20692;-44
2023/10/26 06:44:29;;;;;;;23.63;12.97;;;9.90;99.90;;;;;;5102382;27;20210;-45
2023/10/26 06:46:56;;;;;;;19.63;12.80;;;9.90;99.90;;;;;;5104960;28;20569;-46
2023/10/26 06:49:24;;;;;;;17.73;11.00;;;9.90;99.90;;;;;;5067237;27;20246;-46
2023/10/26 06:51:51;;;;;;;21.63;12.47;;;9.90;99.90;;;;;;5104678;28;20340;-48
2023/10/26 06:54:18;;;;;;;19.00;12.43;;;10.00;99.90;;;;;;5093399;27;20289;-48
2023/10/26 06:56:45;;;;;;;21.40;12.17;;;10.00;99.90;;;;;;5097922;27;20266;-48
2023/10/26 06:59:12;;;;;;;17.77;11.33;;;10.00;99.90;;;;;;5105227;27;20266;-45
2023/10/26 07:01:38;;;;;;;20.27;12.23;;;10.00;99.90;;;;;;5105372;27;20190;-46
2023/10/26 07:04:06;;;;;;;17.73;12.03;;;10.00;99.90;;;;;;5072764;27;20208;-43
2023/10/26 07:06:34;;;;;;;19.97;12.53;;;10.10;99.90;;;;;;5102452;28;20177;-47
2023/10/26 07:09:03;;;;;;;17.17;11.50;;;10.10;99.90;;;;;;5105450;27;20196;-43
2023/10/26 07:11:30;;;;;;;18.97;12.10;;;10.10;99.90;;;;;;5083905;28;22466;-44
2023/10/26 07:13:57;;;;;;;17.40;12.27;;;10.10;99.90;;;;;;5104427;28;20197;-47
2023/10/26 07:16:24;;;;;;;18.73;12.50;;;10.10;99.90;;;;;;5100420;28;20282;-46
2023/10/26 07:18:51;;;;;;;22.43;11.80;;;10.20;99.90;;;;;;5106588;27;20719;-46
2023/10/26 07:21:18;;;;;;;20.23;13.13;;;10.20;99.90;;;;;;5067915;28;20216;-45
2023/10/26 07:23:46;;;;;;;22.13;12.63;;;10.20;99.90;;;;;;5103592;28;20267;-51
2023/10/26 07:26:16;;;;;;;18.83;12.60;;;10.20;99.90;;;;;;5090564;28;20193;-43
2023/10/26 07:28:43;;;;;;;18.33;12.00;;;10.30;99.90;;;;;;5111339;27;20201;-47
2023/10/26 07:31:16;;;;;;;19.20;12.40;;;10.30;99.90;;;;;;5101664;28;20254;-50
2023/10/26 07:33:43;;;;;;;19.00;12.70;;;10.30;99.90;;;;;;5102635;28;20266;-43
2023/10/26 07:36:10;;;;;;;19.37;12.83;;;10.30;99.90;;;;;;5069390;27;20213;-52
2023/10/26 07:38:37;;;;;;;15.83;11.83;;;10.40;99.90;;;;;;5102619;28;20214;-44
2023/10/26 07:41:07;;;;;;;20.37;11.27;;;10.40;99.90;;;;;;5102178;28;20648;-49
2023/10/26 07:43:34;;;;;;;18.93;11.67;;;10.40;99.90;;;;;;5093092;27;20285;-44
2023/10/26 07:46:01;;;;;;;18.57;12.07;;;10.50;99.90;;;;;;5103057;28;20201;-50
2023/10/26 07:48:28;;;;;;;17.03;11.47;;;10.50;99.90;;;;;;5100696;28;20745;-44
2023/10/26 07:50:56;;;;;;;16.13;11.70;;;10.50;99.90;;;;;;5074687;28;20205;-47
2023/10/26 07:53:23;;;;;;;17.53;11.30;;;10.50;99.90;;;;;;5099295;28;20213;-48
2023/10/26 07:55:50;;;;;;;16.40;10.37;;;10.60;99.90;;;;;;5103438;28;20262;-43
2023/10/26 07:58:18;;;;;;;15.53;11.30;;;10.60;99.90;;;;;;5089882;28;20204;-49
2023/10/26 08:00:45;;;;;;;15.07;11.60;;;10.60;99.90;;;;;;5103884;28;20301;-46
2023/10/26 08:03:12;;;;;;;16.97;11.13;;;10.60;99.90;;;;;;5100297;28;20213;-49
2023/10/26 08:05:38;;;;;;;12.93;10.70;;;10.70;99.90;;;;;;5072665;28;20746;-43
2023/10/26 08:08:05;;;;;;;15.80;11.10;;;10.70;99.90;;;;;;5104302;27;20537;-49
2023/10/26 08:10:36;;;;;;;14.67;10.50;;;10.70;99.90;;;;;;5101591;28;20234;-43
2023/10/26 08:13:04;;;;;;;14.27;10.10;;;10.70;99.90;;;;;;5103064;27;20291;-49
2023/10/26 08:15:32;;;;;;;17.40;10.33;;;10.70;99.90;;;;;;5092499;28;20861;-43
2023/10/26 08:17:59;;;;;;;15.23;10.10;;;10.70;99.90;;;;;;5102886;28;20783;-51
2023/10/26 08:20:26;;;;;;;14.77;10.40;;;10.80;99.90;;;;;;5099677;28;20792;-45
2023/10/26 08:22:52;;;;;;;17.07;10.57;;;10.80;99.90;;;;;;5069682;28;20595;-44
2023/10/26 08:25:20;;;;;;;14.20;9.77;;;10.90;99.90;;;;;;5099058;28;20470;-46
2023/10/26 08:27:47;;;;;;;13.70;9.23;;;10.90;99.90;;;;;;5100211;28;20207;-45
2023/10/26 08:30:15;;;;;;;11.80;8.40;;;10.90;99.90;;;;;;5090741;28;20682;-50
2023/10/26 08:32:43;;;;;;;10.93;8.60;;;10.90;99.90;;;;;;5102925;28;20288;-43
2023/10/26 08:35:10;;;;;;;13.40;8.00;;;10.90;99.90;;;;;;5099521;28;20621;-52
2023/10/26 08:37:37;;;;;;;13.40;9.20;;;10.90;99.90;;;;;;5071690;27;20224;-44
2023/10/26 08:40:05;;;;;;;12.17;8.30;;;10.90;99.90;;;;;;5109652;27;20253;-48
2023/10/26 08:42:32;;;;;;;11.60;8.97;;;11.00;99.90;;;;;;5100557;27;20296;-43
2023/10/26 08:45:00;;;;;;;14.53;8.30;;;11.00;99.90;;;;;;5093346;28;20197;-49
2023/10/26 08:47:30;;;;;;;10.00;8.43;;;11.00;99.90;;;;;;5099852;28;20912;-43
2023/10/26 08:49:59;;;;;;;9.77;7.77;;;11.00;99.90;;;;;;5078716;28;20205;-43
2023/10/26 08:52:26;;;;;;;9.00;7.40;;;11.00;99.90;;;;;;5063173;28;20235;-53
2023/10/26 08:54:53;;;;;;;8.23;6.77;;;11.00;99.90;;;;;;5073792;28;20205;-44
2023/10/26 08:57:20;;;;;;;7.07;6.37;;;11.00;99.90;;;;;;5081425;28;20734;-53
2023/10/26 08:59:49;;;;;;;8.97;6.40;;;11.00;99.90;;;;;;5078453;28;20315;-46
2023/10/26 09:02:16;;;;;;;5.73;5.10;;;11.00;99.90;;;;;;5090835;28;20221;-50
2023/10/26 09:05:02;;;;;;;9.63;5.60;;;11.00;99.90;;;;;;5094358;28;20255;-44
2023/10/26 09:07:29;;;;;;;8.20;4.93;;;11.00;99.90;;;;;;5096400;28;20194;-47
2023/10/26 09:09:56;;;;;;;6.97;5.50;;;11.00;99.90;;;;;;5066862;28;20236;-43
2023/10/26 09:12:23;;;;;;;7.50;5.27;;;11.00;99.90;;;;;;5075873;28;20365;-53
2023/10/26 09:14:58;;;;;;;7.30;5.73;;;11.00;99.90;;;;;;5079464;28;21088;-43
2023/10/26 09:17:27;;;;;;;7.57;5.43;;;11.10;99.90;;;;;;5072296;28;20625;-53
2023/10/26 09:19:54;;;;;;;5.40;4.50;;;11.10;99.90;;;;;;5093853;28;20311;-47
2023/10/26 09:22:36;;;;;;;5.20;4.53;;;11.10;99.90;;;;;;5098839;28;20691;-51
2023/10/26 09:25:07;;;;;;;5.57;5.07;;;11.20;99.90;;;;;;5067061;28;20288;-48
2023/10/26 09:27:36;;;;;;;5.20;4.60;;;11.20;99.90;;;;;;5093950;28;20224;-45
2023/10/26 09:30:03;;;;;;;6.57;4.10;;;11.30;99.90;;;;;;5090136;28;20199;-45
2023/10/26 09:32:34;;;;;;;4.67;4.10;;;11.30;99.90;;;;;;5088750;28;20423;-45
2023/10/26 09:35:01;;;;;;;4.37;3.77;;;11.40;99.90;;;;;;5093579;28;20270;-45
2023/10/26 09:37:29;;;;;;;4.13;3.73;;;11.40;99.90;;;;;;5098105;28;20830;-50
2023/10/26 09:39:57;;;;;;;5.87;3.20;;;11.50;99.90;;;;;;5072079;28;20237;-47
2023/10/26 09:42:26;;;;;;;4.87;4.30;;;11.50;99.90;;;;;;5089483;27;20692;-51
2023/10/26 09:44:53;;;;;;;3.63;3.23;;;11.50;99.90;;;;;;5092580;28;20610;-47
2023/10/26 09:47:22;;;;;;;3.57;3.00;;;11.60;99.90;;;;;;5089574;28;20189;-52
2023/10/26 09:49:49;;;;;;;3.67;2.77;;;11.50;99.90;;;;;;5096959;27;20280;-47
2023/10/26 09:52:16;;;;;;;3.33;3.03;;;11.50;99.90;;;;;;5097507;27;20244;-51
2023/10/26 09:54:45;;;;;;;4.30;2.90;;;11.50;99.90;;;;;;5102710;27;20892;-44
2023/10/26 09:57:18;;;;;;;4.40;3.07;;;11.60;99.90;;;;;;5064521;28;20249;-48
2023/10/26 09:59:46;;;;;;;3.83;2.80;;;11.60;99.90;;;;;;5104868;28;20889;-44
2023/10/26 10:02:14;;;;;;;4.37;2.67;;;11.50;99.90;;;;;;5095078;28;20228;-50
2023/10/26 10:04:41;;;;;;;4.13;2.63;;;11.60;99.90;;;;;;5092271;28;20260;-45
2023/10/26 10:07:08;;;;;;;3.43;3.03;;;11.60;99.90;;;;;;5106093;27;20205;-50
2023/10/26 10:10:06;;;;;;;3.13;2.87;;;11.60;99.90;;;;;;5099540;27;20189;-44
2023/10/26 10:12:35;;;;;;;2.90;2.70;;;11.60;99.90;;;;;;5062066;27;20224;-47
2023/10/26 10:15:03;;;;;;;3.13;2.93;;;11.70;99.90;;;;;;5105528;27;20208;-43
2023/10/26 10:18:03;;;;;;;3.33;2.70;;;11.70;99.90;;;;;;5093851;27;20225;-53
2023/10/26 10:20:31;;;;;;;2.50;2.30;;;11.80;99.90;;;;;;5088685;28;20209;-43
2023/10/26 10:23:02;;;;;;;2.90;2.70;;;11.80;99.90;;;;;;5092812;27;20213;-46
2023/10/26 10:25:58;;;;;;;2.57;2.37;;;11.70;99.90;;;;;;5102492;27;20272;-46
2023/10/26 10:28:40;;;;;;;2.50;2.30;;;11.70;99.90;;;;;;5060579;27;20350;-48
2023/10/26 10:31:09;;;;;;;2.17;2.00;;;11.60;99.90;;;;;;5103069;27;20189;-52
2023/10/26 10:33:41;;;;;;;3.90;2.80;;;11.60;99.90;;;;;;5095319;28;20221;-44
2023/10/26 10:36:09;;;;;;;2.67;2.47;;;11.60;99.90;;;;;;5083669;28;20197;-52
2023/10/26 10:38:36;;;;;;;2.87;2.67;;;11.70;99.90;;;;;;5099220;28;20301;-44
2023/10/26 10:41:12;;;;;;;2.80;2.60;;;11.70;99.90;;;;;;5098588;28;20197;-49
2023/10/26 10:43:43;;;;;;;2.83;2.30;;;11.70;99.90;;;;;;5067836;28;20221;-48
2023/10/26 10:46:15;;;;;;;3.00;2.57;;;11.70;99.90;;;;;;5090461;28;20197;-51
2023/10/26 10:49:11;;;;;;;3.70;3.40;;;11.70;99.90;;;;;;5093010;28;20887;-48
2023/10/26 10:51:41;;;;;;;4.97;3.17;;;11.70;99.90;;;;;;5009512;28;20254;-44
2023/10/26 10:54:10;;;;;;;2.87;2.37;;;11.70;99.90;;;;;;5083941;28;20663;-49
2023/10/26 10:56:39;;;;;;;3.03;2.73;;;11.80;99.90;;;;;;5102647;28;20201;-44
2023/10/26 10:59:19;;;;;;;3.20;2.90;;;11.80;99.90;;;;;;5062053;28;20294;-52
2023/10/26 11:01:46;;;;;;;3.43;3.10;;;11.80;99.90;;;;;;5101452;28;20702;-43
2023/10/26 11:04:14;;;;;;;4.30;2.80;;;11.80;99.90;;;;;;5090801;28;20317;-44
2023/10/26 11:06:49;;;;;;;3.17;2.93;;;11.80;99.90;;;;;;5097395;28;20276;-51
2023/10/26 11:09:27;;;;;;;3.10;2.80;;;11.80;99.90;;;;;;5091309;27;20700;-44
2023/10/26 11:11:55;;;;;;;4.07;3.17;;;11.80;99.90;;;;;;5098396;28;20224;-51
2023/10/26 11:14:23;;;;;;;3.30;2.97;;;11.80;99.90;;;;;;5056215;28;20867;-44
2023/10/26 11:16:51;;;;;;;3.10;2.90;;;11.90;99.90;;;;;;5091429;28;20259;-46
2023/10/26 11:19:18;;;;;;;5.30;3.07;;;11.90;99.90;;;;;;5090936;28;20227;-46
2023/10/26 11:21:45;;;;;;;4.60;2.90;;;12.00;99.90;;;;;;5098480;27;20205;-45
2023/10/26 11:24:17;;;;;;;3.00;2.70;;;12.10;99.90;;;;;;5090782;28;20197;-53
2023/10/26 11:26:44;;;;;;;4.97;2.67;;;12.10;99.90;;;;;;5102367;28;20659;-45
2023/10/26 11:29:18;;;;;;;2.37;2.17;;;12.10;99.90;;;;;;5071193;27;20285;-50
2023/10/26 11:31:45;;;;;;;5.50;2.80;;;12.10;99.90;;;;;;5095496;27;20686;-44
2023/10/26 11:34:12;;;;;;;3.17;2.63;;;12.10;99.90;;;;;;5092837;27;20605;-53
2023/10/26 11:36:39;;;;;;;3.03;2.30;;;12.10;99.90;;;;;;5096810;28;20281;-49
2023/10/26 11:39:06;;;;;;;2.50;2.30;;;12.20;99.90;;;;;;5086844;27;20619;-44
2023/10/26 11:41:36;;;;;;;3.43;2.00;;;12.20;99.90;;;;;;5096607;28;20203;-49
2023/10/26 11:44:03;;;;;;;2.07;1.97;;;12.30;99.90;;;;;;5074922;28;20209;-47
2023/10/26 11:46:36;;;;;;;3.40;2.30;;;12.30;99.90;;;;;;5090729;27;20186;-53
2023/10/26 11:49:04;;;;;;;2.47;2.20;;;12.30;99.90;;;;;;5100840;28;20687;-44
2023/10/26 11:51:33;;;;;;;4.13;2.23;;;12.30;99.90;;;;;;5083872;28;20205;-49
2023/10/26 11:54:10;;;;;;;3.97;1.93;;;12.30;99.90;;;;;;5093512;28;20539;-44
2023/10/26 11:56:37;;;;;;;3.00;1.90;;;12.40;99.90;;;;;;5099723;27;20189;-45
2023/10/26 11:59:04;;;;;;;1.80;1.70;;;12.40;99.90;;;;;;5073416;27;20293;-44
2023/10/26 12:01:31;;;;;;;1.83;1.67;;;12.40;99.90;;;;;;5089110;28;20201;-53
2023/10/26 12:03:59;;;;;;;1.53;1.43;;;12.40;99.90;;;;;;5103336;28;20205;-48
2023/10/26 12:06:29;;;;;;;1.97;1.37;;;12.40;99.90;;;;;;5089114;28;20205;-50
2023/10/26 12:08:56;;;;;;;2.17;1.70;;;12.40;99.90;;;;;;5094845;28;20205;-44
2023/10/26 12:11:23;;;;;;;2.00;1.70;;;12.50;99.90;;;;;;5091715;28;20214;-54
2023/10/26 12:13:49;;;;;;;2.10;1.80;;;12.40;99.90;;;;;;5093030;28;20209;-46
2023/10/26 12:16:16;;;;;;;2.00;1.77;;;12.40;99.90;;;;;;5072157;28;20280;-49
2023/10/26 12:18:43;;;;;;;1.60;1.43;;;12.40;99.90;;;;;;5089504;28;20307;-50
2023/10/26 12:21:11;;;;;;;2.60;1.23;;;12.40;99.90;;;;;;5092189;28;20255;-50
2023/10/26 12:23:39;;;;;;;1.80;1.40;;;12.60;99.90;;;;;;5092063;28;20213;-47
2023/10/26 12:26:06;;;;;;;2.37;1.20;;;12.60;99.90;;;;;;5093316;28;20201;-44
2023/10/26 12:28:32;;;;;;;2.30;1.20;;;12.60;99.90;;;;;;5097237;28;20201;-49
2023/10/26 12:30:59;;;;;;;1.10;1.10;;;12.50;99.90;;;;;;5069257;28;20703;-43
2023/10/26 12:33:27;;;;;;;3.23;1.10;;;12.60;99.90;;;;;;5089457;28;20228;-54
2023/10/26 12:35:54;;;;;;;1.47;1.37;;;12.50;99.90;;;;;;5090656;28;20233;-43
2023/10/26 12:38:23;;;;;;;1.30;1.20;;;12.50;99.90;;;;;;5079599;28;20309;-43
2023/10/26 12:40:50;;;;;;;1.13;1.00;;;12.60;99.90;;;;;;5095378;28;20571;-50
2023/10/26 12:43:17;;;;;;;1.30;1.20;;;12.60;99.90;;;;;;5106742;27;20217;-43